createdAt,value
2022-12-03T00:00:34.521Z,64.00
2022-12-03T00:03:25.290Z,63.70
2022-12-03T00:06:13.693Z,63.80
2022-12-03T00:09:02.459Z,65.00
2022-12-03T00:11:50.656Z,67.10
2022-12-03T00:14:44.639Z,66.50
2022-12-03T00:17:33.228Z,64.60
2022-12-03T00:20:23.812Z,64.00
2022-12-03T00:23:11.771Z,63.50
2022-12-03T00:26:00.358Z,63.40
2022-12-03T00:28:48.956Z,64.30
2022-12-03T00:31:39.033Z,66.30
2022-12-03T00:34:27.609Z,65.80
2022-12-03T00:37:15.958Z,64.60
2022-12-03T00:40:05.121Z,63.80
2022-12-03T00:42:53.749Z,63.20
2022-12-03T00:45:42.190Z,63.00
2022-12-03T00:48:32.114Z,63.80
2022-12-03T00:51:20.327Z,65.70
2022-12-03T00:54:08.860Z,65.80
2022-12-03T00:56:57.140Z,64.50
2022-12-03T00:59:45.646Z,63.40
2022-12-03T01:02:33.894Z,63.00
2022-12-03T01:05:23.855Z,62.60
2022-12-03T01:08:11.971Z,62.60
2022-12-03T01:11:01.564Z,65.10
2022-12-03T01:13:49.738Z,65.50
2022-12-03T01:16:38.965Z,63.80
2022-12-03T01:19:27.211Z,63.20
2022-12-03T01:22:18.248Z,62.50
2022-12-03T01:25:07.260Z,62.20
2022-12-03T01:27:55.944Z,62.30
2022-12-03T01:30:58.185Z,64.90
2022-12-03T01:33:46.942Z,65.70
2022-12-03T01:36:35.612Z,63.90
2022-12-03T01:39:25.914Z,62.90
2022-12-03T01:42:18.745Z,62.30
2022-12-03T01:45:08.922Z,61.80
2022-12-03T01:47:57.227Z,61.90
2022-12-03T01:50:46.644Z,64.30
2022-12-03T01:53:34.598Z,65.30
2022-12-03T01:56:24.521Z,63.70
2022-12-03T01:59:16.759Z,62.80
2022-12-03T02:02:13.901Z,62.10
2022-12-03T02:05:07.283Z,61.80
2022-12-03T02:07:56.781Z,61.50
2022-12-03T02:10:45.235Z,64.10
2022-12-03T02:13:35.030Z,64.80
2022-12-03T02:16:23.630Z,63.30
2022-12-03T02:19:22.360Z,62.20
2022-12-03T02:22:28.355Z,61.60
2022-12-03T02:25:21.394Z,61.30
2022-12-03T02:28:10.887Z,61.30
2022-12-03T02:30:59.765Z,63.60
2022-12-03T02:33:50.585Z,64.60
2022-12-03T02:36:40.407Z,63.20
2022-12-03T02:39:29.731Z,62.20
2022-12-03T02:42:38.587Z,61.50
2022-12-03T02:45:30.721Z,61.30
2022-12-03T02:48:22.339Z,61.00
2022-12-03T02:51:12.157Z,63.60
2022-12-03T02:54:00.974Z,64.00
2022-12-03T02:56:49.136Z,63.20
2022-12-03T02:59:39.406Z,61.60
2022-12-03T03:02:28.464Z,61.10
2022-12-03T03:05:20.193Z,60.80
2022-12-03T03:08:10.776Z,60.70
2022-12-03T03:11:02.381Z,63.20
2022-12-03T03:13:50.969Z,64.00
2022-12-03T03:16:40.923Z,62.60
2022-12-03T03:19:30.674Z,61.50
2022-12-03T03:22:19.794Z,61.10
2022-12-03T03:25:10.860Z,60.60
2022-12-03T03:27:59.272Z,60.50
2022-12-03T03:30:48.459Z,62.50
2022-12-03T03:33:39.219Z,63.90
2022-12-03T03:36:27.877Z,62.30
2022-12-03T03:39:16.408Z,61.40
2022-12-03T03:42:05.660Z,60.70
2022-12-03T03:44:54.389Z,60.30
2022-12-03T03:47:43.895Z,60.20
2022-12-03T03:50:34.686Z,62.00
2022-12-03T03:53:23.301Z,63.70
2022-12-03T03:56:12.693Z,62.60
2022-12-03T03:59:01.657Z,61.30
2022-12-03T04:01:50.842Z,60.60
2022-12-03T04:04:39.366Z,60.10
2022-12-03T04:07:29.756Z,59.90
2022-12-03T04:10:35.679Z,62.00
2022-12-03T04:13:23.845Z,63.60
2022-12-03T04:16:12.366Z,62.10
2022-12-03T04:19:01.061Z,60.80
2022-12-03T04:22:06.703Z,60.20
2022-12-03T04:25:17.408Z,59.80
2022-12-03T04:28:23.367Z,59.40
2022-12-03T04:31:29.553Z,61.00
2022-12-03T04:34:35.392Z,63.00
2022-12-03T04:37:24.050Z,61.70
2022-12-03T04:40:27.989Z,60.40
2022-12-03T04:43:16.768Z,60.30
2022-12-03T04:46:04.990Z,59.30
2022-12-03T04:48:54.077Z,59.40
2022-12-03T04:51:42.171Z,61.70
2022-12-03T04:54:31.146Z,62.30
2022-12-03T04:57:20.676Z,60.90
2022-12-03T05:00:10.425Z,60.00
2022-12-03T05:02:58.908Z,59.40
2022-12-03T05:05:47.809Z,59.10
2022-12-03T05:08:36.066Z,58.80
2022-12-03T05:11:24.817Z,60.70
2022-12-03T05:14:14.315Z,62.30
2022-12-03T05:17:03.032Z,61.30
2022-12-03T05:20:08.152Z,60.10
2022-12-03T05:22:56.836Z,59.40
2022-12-03T05:25:44.954Z,59.00
2022-12-03T05:28:33.925Z,58.80
2022-12-03T05:31:24.066Z,60.40
2022-12-03T05:34:12.729Z,62.20
2022-12-03T05:37:01.014Z,61.30
2022-12-03T05:39:49.379Z,60.10
2022-12-03T05:42:57.045Z,59.10
2022-12-03T05:45:46.553Z,58.60
2022-12-03T05:48:36.467Z,58.60
2022-12-03T05:51:25.389Z,59.90
2022-12-03T05:54:13.495Z,61.90
2022-12-03T05:57:01.963Z,60.90
2022-12-03T05:59:50.078Z,59.80
2022-12-03T06:02:38.739Z,58.90
2022-12-03T06:05:28.620Z,58.40
2022-12-03T06:08:17.323Z,58.40
2022-12-03T06:11:05.664Z,59.80
2022-12-03T06:13:54.549Z,61.70
2022-12-03T06:16:42.824Z,61.00
2022-12-03T06:19:31.251Z,59.80
2022-12-03T06:22:20.962Z,59.00
2022-12-03T06:25:10.151Z,58.30
2022-12-03T06:27:58.253Z,58.20
2022-12-03T06:30:46.747Z,59.10
2022-12-03T06:33:35.484Z,61.00
2022-12-03T06:36:24.656Z,61.10
2022-12-03T06:39:14.585Z,59.70
2022-12-03T06:42:03.108Z,58.80
2022-12-03T06:44:51.412Z,58.30
2022-12-03T06:47:40.694Z,58.00
2022-12-03T06:50:29.054Z,59.20
2022-12-03T06:53:17.693Z,60.70
2022-12-03T06:56:07.997Z,60.90
2022-12-03T06:58:56.970Z,60.20
2022-12-03T07:01:45.357Z,58.70
2022-12-03T07:04:34.039Z,58.20
2022-12-03T07:07:22.016Z,57.70
2022-12-03T07:10:11.218Z,58.30
2022-12-03T07:13:00.592Z,60.40
2022-12-03T07:15:49.580Z,60.50
2022-12-03T07:18:38.277Z,59.10
2022-12-03T07:21:26.826Z,58.30
2022-12-03T07:24:15.088Z,57.70
2022-12-03T07:27:03.939Z,57.50
2022-12-03T07:29:53.604Z,57.40
2022-12-03T07:32:42.236Z,59.70
2022-12-03T07:35:30.769Z,60.70
2022-12-03T07:38:19.144Z,59.40
2022-12-03T07:41:08.020Z,58.90
2022-12-03T07:43:56.803Z,58.40
2022-12-03T07:46:47.188Z,57.90
2022-12-03T07:49:36.048Z,57.80
2022-12-03T07:52:24.475Z,59.80
2022-12-03T07:55:13.598Z,60.90
2022-12-03T07:58:01.651Z,60.10
2022-12-03T08:00:50.163Z,58.20
2022-12-03T08:03:39.921Z,57.70
2022-12-03T08:06:28.744Z,57.30
2022-12-03T08:09:17.418Z,58.70
2022-12-03T08:12:15.444Z,59.90
2022-12-03T08:15:03.660Z,58.10
2022-12-03T08:17:56.753Z,57.30
2022-12-03T08:20:48.432Z,56.70
2022-12-03T08:23:36.807Z,56.50
2022-12-03T08:26:27.039Z,56.60
2022-12-03T08:29:17.441Z,59.00
2022-12-03T08:32:11.560Z,60.50
2022-12-03T08:35:03.416Z,60.10
